createdAt,value
2022-10-06T00:02:20.400Z,96698.28
2022-10-06T00:07:21.896Z,96694.47
2022-10-06T00:12:23.307Z,96709.00
2022-10-06T00:17:24.716Z,96712.25
2022-10-06T00:22:26.112Z,96704.81
2022-10-06T00:27:34.167Z,96707.19
2022-10-06T00:32:35.695Z,96721.16
2022-10-06T00:37:38.012Z,96713.34
2022-10-06T00:42:52.996Z,96719.84
2022-10-06T00:47:59.048Z,96718.03
2022-10-06T00:53:00.557Z,96720.44
2022-10-06T00:58:02.036Z,96715.72
2022-10-06T01:03:06.844Z,96711.13
2022-10-06T01:08:08.427Z,96716.31
2022-10-06T01:13:12.174Z,96713.69
2022-10-06T01:18:17.568Z,96714.41
2022-10-06T01:23:19.347Z,96705.88
2022-10-06T01:28:21.542Z,96710.81
2022-10-06T01:33:23.591Z,96711.06
2022-10-06T01:38:26.783Z,96712.50
2022-10-06T01:43:34.363Z,96724.78
2022-10-06T01:48:36.617Z,96732.47
2022-10-06T01:53:38.301Z,96735.00
2022-10-06T01:58:39.890Z,96735.34
2022-10-06T02:03:42.603Z,96743.00
2022-10-06T02:08:44.027Z,96738.88
2022-10-06T02:13:46.206Z,96742.47
2022-10-06T02:18:48.025Z,96751.22
2022-10-06T02:23:50.245Z,96749.03
2022-10-06T02:28:51.750Z,96763.03
2022-10-06T02:33:57.989Z,96756.56
2022-10-06T02:38:59.971Z,96769.03
2022-10-06T02:44:02.508Z,96767.56
2022-10-06T02:49:05.045Z,96780.38
2022-10-06T02:54:06.621Z,96792.13
2022-10-06T02:59:09.347Z,96791.16
2022-10-06T03:04:12.385Z,96801.00
2022-10-06T03:09:15.830Z,96804.19
2022-10-06T03:14:21.928Z,96807.50
2022-10-06T03:19:25.104Z,96820.19
2022-10-06T03:24:27.682Z,96823.81
2022-10-06T03:29:32.069Z,96830.84
2022-10-06T03:34:33.755Z,96830.13
2022-10-06T03:39:38.444Z,96825.47
2022-10-06T03:44:40.335Z,96831.59
2022-10-06T03:49:42.340Z,96828.94
2022-10-06T03:54:44.000Z,96838.78
2022-10-06T03:59:45.721Z,96847.75
2022-10-06T04:04:47.441Z,96848.47
2022-10-06T04:09:48.979Z,96857.56
2022-10-06T04:14:54.356Z,96852.13
2022-10-06T04:19:58.186Z,96847.78
2022-10-06T04:25:00.488Z,96861.41
2022-10-06T04:30:02.118Z,96860.91
2022-10-06T04:35:05.733Z,96864.16
2022-10-06T04:40:08.099Z,96875.88
2022-10-06T04:45:10.928Z,96879.47
2022-10-06T04:50:14.577Z,96887.16
2022-10-06T04:55:34.853Z,96894.25
2022-10-06T05:00:38.851Z,96901.50
2022-10-06T05:05:42.169Z,96906.69
2022-10-06T05:10:44.371Z,96916.31
2022-10-06T05:15:55.913Z,96917.44
2022-10-06T05:21:20.461Z,96924.22
2022-10-06T05:26:24.893Z,96935.72
2022-10-06T05:31:33.064Z,96936.13
2022-10-06T05:36:38.782Z,96956.59
2022-10-06T05:41:41.619Z,96961.84
2022-10-06T05:46:46.067Z,96956.72
2022-10-06T05:51:47.978Z,96969.56
2022-10-06T05:56:54.429Z,96971.06
2022-10-06T06:01:57.234Z,96969.56
2022-10-06T06:07:12.968Z,96978.53
2022-10-06T06:12:17.091Z,96987.28
2022-10-06T06:17:31.972Z,96990.25
2022-10-06T06:22:36.037Z,96989.84
2022-10-06T06:27:39.394Z,96993.75
2022-10-06T06:32:41.924Z,96998.94
2022-10-06T06:37:43.410Z,96994.47
2022-10-06T06:42:45.098Z,96992.44
2022-10-06T06:48:06.763Z,96995.78
2022-10-06T06:53:11.715Z,96981.13
2022-10-06T06:58:19.611Z,96991.75
2022-10-06T07:03:45.277Z,96990.09
2022-10-06T07:08:46.273Z,97001.47
2022-10-06T07:13:52.958Z,97003.06
2022-10-06T07:18:54.467Z,97006.56
2022-10-06T07:23:56.351Z,97007.75
2022-10-06T07:28:58.566Z,97023.66
2022-10-06T07:34:00.792Z,97010.75
2022-10-06T07:39:03.119Z,97013.66
2022-10-06T07:44:07.997Z,97011.91
2022-10-06T07:49:10.545Z,97013.69
2022-10-06T07:54:12.130Z,97009.91
2022-10-06T07:59:32.048Z,97005.72
2022-10-06T08:04:33.495Z,97020.03
2022-10-06T08:09:34.925Z,97013.88
2022-10-06T08:14:36.443Z,97015.16
2022-10-06T08:19:38.670Z,97018.06
2022-10-06T08:25:04.200Z,97013.50
2022-10-06T08:30:02.027Z,97018.94
2022-10-06T08:35:05.503Z,97018.13
2022-10-06T08:40:07.458Z,97016.06
2022-10-06T08:45:22.941Z,97010.25
2022-10-06T08:50:28.640Z,97016.06
2022-10-06T08:55:50.060Z,97004.38
2022-10-06T09:00:52.447Z,97008.72
2022-10-06T09:06:04.235Z,97014.47
2022-10-06T09:11:29.762Z,97016.56
2022-10-06T09:16:36.198Z,97005.97
2022-10-06T09:21:44.903Z,97008.25
2022-10-06T09:26:50.543Z,97002.16
2022-10-06T09:31:52.239Z,97000.75
2022-10-06T09:37:02.614Z,97003.66
2022-10-06T09:42:31.081Z,97011.25
2022-10-06T09:47:37.004Z,97002.88
2022-10-06T09:52:39.177Z,97003.78
2022-10-06T09:57:52.998Z,96996.59
2022-10-06T10:03:14.907Z,96998.84
2022-10-06T10:08:22.406Z,96997.59
2022-10-06T10:13:25.941Z,96989.38
2022-10-06T10:18:31.413Z,96986.50
2022-10-06T10:23:34.991Z,96980.78
2022-10-06T10:29:14.831Z,96973.44
2022-10-06T10:34:33.589Z,96975.88
2022-10-06T10:39:44.498Z,96974.13
2022-10-06T10:44:57.099Z,96977.66
2022-10-06T10:50:16.752Z,96983.28
2022-10-06T10:55:26.148Z,96967.38
2022-10-06T11:00:29.385Z,96980.06
2022-10-06T11:05:57.310Z,96971.69
2022-10-06T11:11:02.241Z,96968.31
2022-10-06T11:16:25.883Z,96963.75
2022-10-06T11:21:47.599Z,96958.53
2022-10-06T11:26:55.661Z,96954.53
2022-10-06T11:32:09.236Z,96960.84
2022-10-06T11:37:32.590Z,96954.88
2022-10-06T11:42:42.883Z,96952.22
2022-10-06T11:47:57.315Z,96955.50
2022-10-06T11:52:59.943Z,96953.59
2022-10-06T11:58:23.502Z,96945.31
2022-10-06T12:03:30.815Z,96943.69
2022-10-06T12:08:37.506Z,96939.06
2022-10-06T12:19:28.447Z,96934.53
2022-10-06T12:24:45.333Z,96926.66
2022-10-06T12:30:01.258Z,96926.00
2022-10-06T12:35:12.540Z,96915.16
2022-10-06T12:40:38.881Z,96910.81
2022-10-06T12:45:55.622Z,96914.34
2022-10-06T12:51:13.644Z,96900.00
2022-10-06T12:56:30.555Z,96898.50
2022-10-06T13:01:36.018Z,96897.56
2022-10-06T13:06:39.073Z,96889.75
2022-10-06T13:11:40.632Z,96894.91
2022-10-06T13:16:45.588Z,96896.41
2022-10-06T13:21:47.784Z,96894.00
2022-10-06T13:26:49.566Z,96893.84
2022-10-06T13:31:53.558Z,96892.81
2022-10-06T13:36:56.027Z,96895.88
2022-10-06T13:42:04.501Z,96891.91
2022-10-06T13:47:17.049Z,96889.06
2022-10-06T13:52:36.210Z,96881.47
2022-10-06T13:57:49.249Z,96881.19
2022-10-06T14:03:10.142Z,96881.38
2022-10-06T14:08:13.077Z,96871.91
2022-10-06T14:13:25.754Z,96877.97
2022-10-06T14:18:57.173Z,96878.50
2022-10-06T14:24:24.112Z,96882.13
2022-10-06T14:29:27.282Z,96884.75
2022-10-06T14:39:59.324Z,96874.06
2022-10-06T14:45:01.133Z,96870.50
2022-10-06T14:50:03.675Z,96875.72
2022-10-06T14:55:06.502Z,96863.78
2022-10-06T15:00:10.745Z,96860.81
2022-10-06T15:05:13.148Z,96856.16
2022-10-06T15:10:14.676Z,96858.03
2022-10-06T15:15:16.895Z,96855.50
2022-10-06T15:20:23.949Z,96857.41
2022-10-06T15:25:30.591Z,96853.94
2022-10-06T15:30:32.962Z,96849.19
2022-10-06T15:35:35.675Z,96855.50
2022-10-06T15:40:37.904Z,96852.06
2022-10-06T15:45:40.577Z,96848.16
2022-10-06T15:50:42.785Z,96851.41
2022-10-06T15:55:45.014Z,96845.09
2022-10-06T16:00:47.363Z,96852.84
2022-10-06T16:05:51.581Z,96854.38
2022-10-06T16:10:54.246Z,96852.84
2022-10-06T16:15:58.747Z,96851.47
2022-10-06T16:21:01.924Z,96850.00
2022-10-06T16:26:04.848Z,96859.84
2022-10-06T16:31:06.285Z,96856.19
2022-10-06T16:36:09.916Z,96857.56
2022-10-06T16:41:12.330Z,96851.19
2022-10-06T16:46:33.180Z,96858.13
2022-10-06T16:51:40.427Z,96864.25
2022-10-06T16:56:44.563Z,96868.03
2022-10-06T17:01:48.392Z,96865.06
2022-10-06T17:06:54.767Z,96880.91
2022-10-06T17:11:58.776Z,96875.59
2022-10-06T17:17:00.226Z,96875.31
2022-10-06T17:22:01.649Z,96880.75
2022-10-06T17:27:06.417Z,96873.81
2022-10-06T17:32:07.874Z,96880.09
2022-10-06T17:37:09.271Z,96887.88
2022-10-06T17:42:10.674Z,96893.31
2022-10-06T17:47:12.067Z,96888.72
2022-10-06T17:52:13.504Z,96895.50
2022-10-06T17:57:15.011Z,96888.84
2022-10-06T18:02:16.800Z,96899.44
2022-10-06T18:07:18.546Z,96888.00
2022-10-06T18:12:19.951Z,96894.06
2022-10-06T18:17:21.345Z,96888.09
2022-10-06T18:22:22.798Z,96892.72
2022-10-06T18:27:24.390Z,96891.94
2022-10-06T18:34:58.814Z,96888.59
2022-10-06T18:37:47.819Z,96894.50
2022-10-06T18:42:49.280Z,96894.81
2022-10-06T18:47:50.706Z,96888.66
2022-10-06T18:52:52.116Z,96898.72
2022-10-06T18:57:53.575Z,96890.31
2022-10-06T19:02:54.973Z,96890.63
2022-10-06T19:07:56.391Z,96902.94
2022-10-06T19:12:57.761Z,96902.22
2022-10-06T19:17:59.145Z,96903.03
2022-10-06T19:23:00.589Z,96896.56
2022-10-06T19:28:02.184Z,96896.97
2022-10-06T19:33:05.316Z,96898.47
2022-10-06T19:38:06.800Z,96894.41
2022-10-06T19:43:08.197Z,96901.63
2022-10-06T19:48:10.969Z,96907.34
2022-10-06T19:53:12.471Z,96899.06
2022-10-06T19:58:13.938Z,96902.97
2022-10-06T20:03:15.366Z,96909.56
2022-10-06T20:08:17.857Z,96901.69
2022-10-06T20:13:19.404Z,96905.44
2022-10-06T20:18:21.605Z,96907.66
2022-10-06T20:23:24.099Z,96904.81
2022-10-06T20:28:25.542Z,96901.03
2022-10-06T20:33:27.153Z,96904.78
2022-10-06T20:38:28.793Z,96901.31
2022-10-06T20:43:30.454Z,96904.50
2022-10-06T20:48:36.371Z,96896.34
2022-10-06T20:53:39.580Z,96896.41
2022-10-06T20:58:42.331Z,96894.97
2022-10-06T21:03:49.740Z,96887.78
2022-10-06T21:08:52.770Z,96893.41
2022-10-06T21:13:54.232Z,96883.81
2022-10-06T21:18:55.792Z,96882.84
2022-10-06T21:23:57.579Z,96882.41
2022-10-06T21:29:01.444Z,96873.72
2022-10-06T21:34:03.895Z,96872.75
2022-10-06T21:39:06.860Z,96870.75
2022-10-06T21:49:31.504Z,96864.94
2022-10-06T21:54:33.772Z,96853.47
2022-10-06T21:59:35.345Z,96859.75
2022-10-06T22:04:36.801Z,96856.25
2022-10-06T22:09:38.306Z,96852.38
2022-10-06T22:14:40.089Z,96857.16
2022-10-06T22:19:41.562Z,96852.19
2022-10-06T22:24:43.532Z,96842.00
2022-10-06T22:29:44.960Z,96841.50
2022-10-06T22:34:46.382Z,96842.47
2022-10-06T22:39:47.825Z,96837.59
2022-10-06T22:44:49.272Z,96833.16
2022-10-06T22:49:50.719Z,96837.38
2022-10-06T22:54:52.153Z,96833.28
2022-10-06T22:59:53.576Z,96824.06
2022-10-06T23:04:55.031Z,96821.09
2022-10-06T23:09:56.740Z,96809.41
2022-10-06T23:14:58.148Z,96810.09
2022-10-06T23:20:00.006Z,96801.75
2022-10-06T23:25:01.729Z,96803.19
2022-10-06T23:30:05.273Z,96804.41
2022-10-06T23:35:12.020Z,96803.75
2022-10-06T23:40:15.216Z,96801.94
2022-10-06T23:45:17.490Z,96802.91
2022-10-06T23:50:19.730Z,96802.47
2022-10-06T23:55:21.996Z,96803.44
